createdAt,value
2019-02-26T00:04:23.207Z,8.02
2019-02-26T00:09:28.235Z,7.96
2019-02-26T00:14:33.356Z,7.74
2019-02-26T00:19:37.577Z,7.67
2019-02-26T00:24:42.701Z,7.66
2019-02-26T00:29:49.213Z,7.67
2019-02-26T00:34:55.721Z,7.66
2019-02-26T00:39:59.668Z,7.63
2019-02-26T00:45:05.803Z,7.59
2019-02-26T00:50:12.015Z,7.46
2019-02-26T00:55:16.366Z,7.32
2019-02-26T01:00:20.804Z,7.27
2019-02-26T01:05:25.047Z,7.31
2019-02-26T01:10:29.293Z,7.19
2019-02-26T01:15:33.530Z,7.06
2019-02-26T01:20:37.767Z,6.94
2019-02-26T01:25:42.233Z,6.86
2019-02-26T01:30:48.911Z,6.94
2019-02-26T01:35:53.464Z,6.87
2019-02-26T01:40:58.512Z,6.83
2019-02-26T01:46:02.741Z,6.66
2019-02-26T01:51:06.971Z,6.55
2019-02-26T01:56:11.204Z,6.44
2019-02-26T02:01:16.797Z,6.62
2019-02-26T02:06:21.519Z,6.58
2019-02-26T02:11:28.244Z,6.51
2019-02-26T02:16:33.507Z,6.60
2019-02-26T02:21:37.935Z,6.60
2019-02-26T02:26:45.338Z,6.57
2019-02-26T02:31:48.119Z,6.47
2019-02-26T02:36:52.372Z,6.47
2019-02-26T02:41:56.839Z,6.34
2019-02-26T02:47:03.347Z,6.23
2019-02-26T02:52:09.623Z,6.03
2019-02-26T02:57:13.712Z,6.14
2019-02-26T03:02:20.446Z,6.11
2019-02-26T03:07:26.699Z,6.08
2019-02-26T03:12:29.988Z,5.84
2019-02-26T03:17:34.203Z,6.12
2019-02-26T03:22:41.969Z,5.89
2019-02-26T03:27:44.596Z,5.58
2019-02-26T03:32:55.698Z,5.67
2019-02-26T03:37:57.933Z,5.50
2019-02-26T03:43:01.508Z,5.39
2019-02-26T03:48:06.769Z,5.39
2019-02-26T03:53:10.999Z,5.38
2019-02-26T03:58:15.222Z,5.29
2019-02-26T04:03:19.954Z,5.34
2019-02-26T04:08:25.084Z,5.33
2019-02-26T04:13:30.199Z,5.06
2019-02-26T04:18:34.935Z,5.31
2019-02-26T04:23:41.560Z,5.44
2019-02-26T04:28:57.352Z,5.27
2019-02-26T04:34:15.232Z,5.21
2019-02-26T04:39:42.912Z,5.23
2019-02-26T04:45:22.407Z,5.22
2019-02-26T04:50:29.568Z,5.20
2019-02-26T04:55:36.103Z,4.78
2019-02-26T05:00:38.961Z,5.00
2019-02-26T05:05:43.184Z,5.11
2019-02-26T05:10:49.818Z,5.16
2019-02-26T05:15:53.402Z,5.17
2019-02-26T05:20:59.305Z,4.96
2019-02-26T05:26:05.557Z,5.07
2019-02-26T05:31:12.466Z,4.92
2019-02-26T05:36:17.245Z,5.14
2019-02-26T05:41:21.639Z,5.11
2019-02-26T05:46:27.500Z,4.98
2019-02-26T05:51:32.673Z,4.77
2019-02-26T05:56:40.769Z,4.90
2019-02-26T06:01:46.503Z,4.67
2019-02-26T06:06:51.075Z,4.68
2019-02-26T06:11:55.795Z,4.81
2019-02-26T06:17:00.053Z,4.92
2019-02-26T06:22:04.266Z,4.78
2019-02-26T06:27:10.907Z,4.94
2019-02-26T06:32:15.866Z,4.92
2019-02-26T06:37:23.504Z,4.86
2019-02-26T06:42:28.330Z,4.57
2019-02-26T06:47:33.903Z,4.71
2019-02-26T06:52:39.935Z,4.85
2019-02-26T06:57:47.078Z,4.92
2019-02-26T07:02:50.256Z,4.74
2019-02-26T07:07:56.937Z,4.80
2019-02-26T07:13:02.113Z,4.86
2019-02-26T07:18:07.694Z,4.84
2019-02-26T07:23:12.919Z,5.04
2019-02-26T07:28:20.062Z,5.06
2019-02-26T07:33:24.277Z,5.05
2019-02-26T07:38:28.518Z,4.93
2019-02-26T07:43:36.656Z,5.18
2019-02-26T07:48:38.897Z,5.62
2019-02-26T07:53:48.482Z,5.68
2019-02-26T07:58:49.071Z,5.91
2019-02-26T08:03:53.376Z,5.96
2019-02-26T08:08:57.614Z,6.02
2019-02-26T08:14:01.850Z,6.33
2019-02-26T08:19:06.075Z,6.67
2019-02-26T08:24:12.370Z,6.81
2019-02-26T08:29:16.622Z,6.76
2019-02-26T08:34:20.864Z,7.04
2019-02-26T08:39:25.111Z,7.34
2019-02-26T08:44:29.323Z,7.15
2019-02-26T08:49:35.338Z,7.48
2019-02-26T08:54:39.490Z,7.91
2019-02-26T08:59:45.466Z,7.23
2019-02-26T09:04:49.679Z,7.08
2019-02-26T09:09:56.874Z,7.54
2019-02-26T09:14:59.908Z,7.79
2019-02-26T09:20:09.366Z,7.71
2019-02-26T09:25:10.607Z,7.40
2019-02-26T09:30:16.317Z,8.00
2019-02-26T09:35:26.777Z,7.88
2019-02-26T09:40:29.126Z,7.99
2019-02-26T09:45:32.612Z,8.24
2019-02-26T09:50:38.587Z,8.06
2019-02-26T09:55:42.798Z,8.59
2019-02-26T10:00:48.105Z,8.66
2019-02-26T10:05:55.148Z,8.91
2019-02-26T10:11:01.678Z,8.71
2019-02-26T10:16:06.456Z,8.54
2019-02-26T10:21:12.314Z,8.94
2019-02-26T10:26:16.881Z,9.30
2019-02-26T10:31:23.963Z,9.80
2019-02-26T10:36:30.392Z,9.97
2019-02-26T10:41:34.839Z,10.27
2019-02-26T10:46:41.780Z,10.24
2019-02-26T10:51:45.067Z,9.80
2019-02-26T10:56:49.300Z,9.80
2019-02-26T11:01:55.300Z,9.86
2019-02-26T11:07:01.676Z,10.25
2019-02-26T11:12:08.326Z,10.35
2019-02-26T11:17:11.428Z,10.58
2019-02-26T11:22:18.171Z,10.24
2019-02-26T11:27:21.627Z,10.04
2019-02-26T11:32:27.806Z,10.10
2019-02-26T11:37:32.111Z,10.27
2019-02-26T11:42:36.390Z,10.67
2019-02-26T11:47:41.307Z,11.44
2019-02-26T11:52:46.944Z,11.77
2019-02-26T11:57:51.202Z,12.82
2019-02-26T12:02:55.464Z,12.86
2019-02-26T12:07:59.740Z,11.68
2019-02-26T12:13:04.102Z,11.81
2019-02-26T12:18:10.145Z,11.90
2019-02-26T12:23:16.174Z,11.61
2019-02-26T12:28:20.406Z,11.20
2019-02-26T12:33:24.855Z,11.08
2019-02-26T12:38:29.156Z,11.21
2019-02-26T12:43:36.460Z,11.13
2019-02-26T12:48:41.862Z,11.31
2019-02-26T12:53:47.557Z,11.47
2019-02-26T12:58:54.545Z,11.80
2019-02-26T13:03:57.923Z,11.67
2019-02-26T13:09:02.233Z,11.98
2019-02-26T13:14:06.484Z,12.09
2019-02-26T13:19:11.110Z,12.51
2019-02-26T13:24:17.802Z,11.77
2019-02-26T13:29:21.346Z,11.93
2019-02-26T13:34:25.598Z,11.72
2019-02-26T13:39:38.001Z,11.95
2019-02-26T13:44:35.884Z,11.75
2019-02-26T13:49:40.121Z,11.87
2019-02-26T13:54:44.379Z,12.14
2019-02-26T13:59:48.882Z,11.77
2019-02-26T14:04:53.169Z,11.77
2019-02-26T14:09:57.486Z,11.80
2019-02-26T14:15:03.694Z,11.81
2019-02-26T14:20:08.983Z,11.95
2019-02-26T14:25:13.256Z,11.80
2019-02-26T14:30:17.376Z,11.68
2019-02-26T14:35:21.611Z,11.70
2019-02-26T14:40:25.855Z,11.90
2019-02-26T14:45:30.078Z,11.82
2019-02-26T14:50:35.258Z,11.84
2019-02-26T14:55:39.537Z,11.98
2019-02-26T15:00:43.782Z,11.90
2019-02-26T15:05:48.012Z,11.92
2019-02-26T15:10:52.251Z,11.95
2019-02-26T15:15:56.492Z,11.76
2019-02-26T15:21:00.722Z,11.81
2019-02-26T15:26:04.953Z,11.64
2019-02-26T15:31:09.245Z,11.55
2019-02-26T15:36:13.469Z,11.50
2019-02-26T15:41:17.736Z,11.39
2019-02-26T15:46:21.992Z,11.49
2019-02-26T15:51:26.240Z,11.34
2019-02-26T15:56:30.494Z,11.42
2019-02-26T16:01:34.753Z,11.34
2019-02-26T16:06:39.020Z,11.24
2019-02-26T16:11:43.310Z,11.03
2019-02-26T16:16:47.676Z,11.10
2019-02-26T16:21:51.927Z,11.15
2019-02-26T16:26:56.388Z,11.20
2019-02-26T16:32:02.657Z,11.20
2019-02-26T16:37:07.928Z,11.12
2019-02-26T16:42:12.475Z,11.05
2019-02-26T16:47:17.475Z,10.90
2019-02-26T16:52:21.726Z,10.83
2019-02-26T16:57:28.176Z,10.75
2019-02-26T17:02:31.999Z,10.72
2019-02-26T17:07:36.336Z,10.76
2019-02-26T17:12:40.588Z,10.75
2019-02-26T17:17:44.827Z,10.74
2019-02-26T17:22:49.097Z,10.67
2019-02-26T17:27:53.387Z,10.53
2019-02-26T17:32:57.648Z,10.54
2019-02-26T17:38:01.909Z,10.47
2019-02-26T17:43:06.604Z,10.49
2019-02-26T17:48:10.857Z,10.54
2019-02-26T17:53:15.104Z,10.46
2019-02-26T17:58:19.348Z,10.41
2019-02-26T18:03:25.626Z,10.30
2019-02-26T18:08:29.622Z,10.17
2019-02-26T18:13:33.952Z,10.09
2019-02-26T18:18:38.215Z,10.05
2019-02-26T18:23:42.459Z,9.99
2019-02-26T18:28:47.911Z,9.96
2019-02-26T18:33:52.648Z,9.86
2019-02-26T18:38:57.148Z,9.79
2019-02-26T18:44:09.596Z,9.86
2019-02-26T18:49:13.848Z,9.80
2019-02-26T18:54:20.317Z,9.65
2019-02-26T18:59:24.071Z,9.53
2019-02-26T19:04:28.359Z,9.48
2019-02-26T19:09:32.590Z,9.35
2019-02-26T19:14:36.831Z,9.38
2019-02-26T19:19:42.014Z,9.26
2019-02-26T19:24:46.787Z,9.14
2019-02-26T19:29:51.043Z,9.13
2019-02-26T19:34:55.270Z,8.98
2019-02-26T19:39:59.522Z,8.96
2019-02-26T19:45:08.360Z,8.98
2019-02-26T19:50:11.857Z,8.79
2019-02-26T19:55:19.822Z,8.79
2019-02-26T20:00:24.192Z,8.76
2019-02-26T20:05:28.525Z,8.74
2019-02-26T20:10:32.826Z,8.66
2019-02-26T20:15:37.187Z,8.62
2019-02-26T20:20:45.688Z,8.57
2019-02-26T20:25:47.599Z,8.55
2019-02-26T20:30:51.869Z,8.58
2019-02-26T20:35:56.163Z,8.50
2019-02-26T20:41:00.403Z,8.50
2019-02-26T20:46:04.687Z,8.46
2019-02-26T20:51:09.021Z,8.44
2019-02-26T20:56:13.555Z,8.33
2019-02-26T21:01:17.968Z,8.35
2019-02-26T21:06:22.232Z,8.24
2019-02-26T21:11:26.500Z,8.14
2019-02-26T21:16:30.738Z,8.14
2019-02-26T21:21:35.836Z,8.11
2019-02-26T21:26:40.230Z,8.03
2019-02-26T21:31:44.474Z,8.02
2019-02-26T21:36:48.724Z,8.04
2019-02-26T21:41:55.627Z,7.94
2019-02-26T21:46:58.959Z,7.94
2019-02-26T21:52:06.649Z,7.90
2019-02-26T21:57:09.152Z,7.91
2019-02-26T22:02:13.383Z,7.72
2019-02-26T22:07:19.076Z,7.73
2019-02-26T22:12:24.200Z,7.75
2019-02-26T22:17:29.425Z,7.61
2019-02-26T22:22:33.636Z,7.55
2019-02-26T22:27:38.163Z,7.58
2019-02-26T22:32:42.437Z,7.60
2019-02-26T22:37:46.661Z,7.46
2019-02-26T22:42:50.991Z,7.60
2019-02-26T22:47:55.417Z,7.58
2019-02-26T22:53:03.769Z,7.58
2019-02-26T22:58:05.653Z,7.57
2019-02-26T23:03:10.718Z,7.52
2019-02-26T23:08:15.936Z,7.51
2019-02-26T23:13:20.410Z,7.47
2019-02-26T23:18:24.680Z,7.41
2019-02-26T23:23:29.475Z,7.41
2019-02-26T23:28:33.733Z,7.33
2019-02-26T23:33:37.965Z,7.31
2019-02-26T23:38:44.189Z,7.32
2019-02-26T23:43:48.190Z,7.23
2019-02-26T23:48:52.411Z,7.19
2019-02-26T23:53:56.647Z,7.09
2019-02-26T23:59:01.708Z,7.16
